sensor_id;sensor_type;location;lat;lon;timestamp;pressure;altitude;pressure_sealevel;temperature;humidity
62926;BME280;55732;52.248;-0.844;2023-04-06T00:00:18;100537.00;;;9.34;89.92
62926;BME280;55732;52.248;-0.844;2023-04-06T00:02:43;100533.48;;;9.33;90.06
62926;BME280;55732;52.248;-0.844;2023-04-06T00:05:09;100528.92;;;9.34;90.10
62926;BME280;55732;52.248;-0.844;2023-04-06T00:07:35;100527.34;;;9.35;90.07
62926;BME280;55732;52.248;-0.844;2023-04-06T00:10:01;100524.70;;;9.35;89.96
62926;BME280;55732;52.248;-0.844;2023-04-06T00:12:27;100522.60;;;9.34;89.84
62926;BME280;55732;52.248;-0.844;2023-04-06T00:14:52;100521.89;;;9.34;89.78
62926;BME280;55732;52.248;-0.844;2023-04-06T00:17:17;100520.84;;;9.34;89.92
62926;BME280;55732;52.248;-0.844;2023-04-06T00:19:43;100518.73;;;9.34;90.24
62926;BME280;55732;52.248;-0.844;2023-04-06T00:22:08;100514.86;;;9.34;90.14
62926;BME280;55732;52.248;-0.844;2023-04-06T00:24:34;100514.16;;;9.35;90.23
62926;BME280;55732;52.248;-0.844;2023-04-06T00:26:59;100512.59;;;9.35;90.21
62926;BME280;55732;52.248;-0.844;2023-04-06T00:29:25;100509.08;;;9.35;90.27
62926;BME280;55732;52.248;-0.844;2023-04-06T00:31:50;100510.13;;;9.36;90.21
62926;BME280;55732;52.248;-0.844;2023-04-06T00:34:16;100499.77;;;9.36;90.29
62926;BME280;55732;52.248;-0.844;2023-04-06T00:36:41;100499.59;;;9.36;90.47
62926;BME280;55732;52.248;-0.844;2023-04-06T00:39:07;100492.38;;;9.35;90.06
62926;BME280;55732;52.248;-0.844;2023-04-06T00:41:32;100489.03;;;9.34;90.33
62926;BME280;55732;52.248;-0.844;2023-04-06T00:43:57;100486.23;;;9.33;90.40
62926;BME280;55732;52.248;-0.844;2023-04-06T00:46:23;100481.48;;;9.33;90.35
62926;BME280;55732;52.248;-0.844;2023-04-06T00:48:49;100483.05;;;9.32;90.36
62926;BME280;55732;52.248;-0.844;2023-04-06T00:51:14;100477.96;;;9.33;90.59
62926;BME280;55732;52.248;-0.844;2023-04-06T00:53:40;100474.45;;;9.34;90.69
62926;BME280;55732;52.248;-0.844;2023-04-06T00:56:05;100469.36;;;9.34;90.52
62926;BME280;55732;52.248;-0.844;2023-04-06T00:58:31;100466.89;;;9.33;90.49
62926;BME280;55732;52.248;-0.844;2023-04-06T01:00:57;100463.20;;;9.33;90.76
62926;BME280;55732;52.248;-0.844;2023-04-06T01:03:23;100456.52;;;9.33;90.75
62926;BME280;55732;52.248;-0.844;2023-04-06T01:05:49;100454.77;;;9.34;90.88
62926;BME280;55732;52.248;-0.844;2023-04-06T01:08:17;100453.89;;;9.34;90.84
62926;BME280;55732;52.248;-0.844;2023-04-06T01:10:42;100456.02;;;9.36;91.05
62926;BME280;55732;52.248;-0.844;2023-04-06T01:13:08;100451.27;;;9.36;90.81
62926;BME280;55732;52.248;-0.844;2023-04-06T01:15:34;100444.94;;;9.36;90.81
62926;BME280;55732;52.248;-0.844;2023-04-06T01:18:00;100442.83;;;9.35;91.01
62926;BME280;55732;52.248;-0.844;2023-04-06T01:20:25;100441.95;;;9.34;90.96
62926;BME280;55732;52.248;-0.844;2023-04-06T01:22:51;100440.19;;;9.35;91.04
62926;BME280;55732;52.248;-0.844;2023-04-06T01:25:17;100431.58;;;9.35;90.97
62926;BME280;55732;52.248;-0.844;2023-04-06T01:27:42;100432.64;;;9.35;91.00
62926;BME280;55732;52.248;-0.844;2023-04-06T01:30:08;100431.05;;;9.34;90.93
62926;BME280;55732;52.248;-0.844;2023-04-06T01:32:33;100422.96;;;9.33;91.03
62926;BME280;55732;52.248;-0.844;2023-04-06T01:34:59;100418.56;;;9.33;91.11
62926;BME280;55732;52.248;-0.844;2023-04-06T01:37:24;100419.98;;;9.33;91.17
62926;BME280;55732;52.248;-0.844;2023-04-06T01:39:50;100415.41;;;9.34;91.23
62926;BME280;55732;52.248;-0.844;2023-04-06T01:42:16;100413.30;;;9.34;91.22
62926;BME280;55732;52.248;-0.844;2023-04-06T01:44:41;100405.74;;;9.34;91.33
62926;BME280;55732;52.248;-0.844;2023-04-06T01:47:07;100405.92;;;9.33;91.30
62926;BME280;55732;52.248;-0.844;2023-04-06T01:49:32;100405.05;;;9.32;91.33
62926;BME280;55732;52.248;-0.844;2023-04-06T01:51:57;100400.30;;;9.33;91.48
62926;BME280;55732;52.248;-0.844;2023-04-06T01:54:23;100396.42;;;9.33;91.61
62926;BME280;55732;52.248;-0.844;2023-04-06T01:56:48;100397.67;;;9.35;91.56
62926;BME280;55732;52.248;-0.844;2023-04-06T01:59:15;100395.73;;;9.35;91.53
62926;BME280;55732;52.248;-0.844;2023-04-06T02:01:41;100396.96;;;9.35;91.68
62926;BME280;55732;52.248;-0.844;2023-04-06T02:04:06;100388.37;;;9.37;91.64
62926;BME280;55732;52.248;-0.844;2023-04-06T02:06:31;100388.73;;;9.38;91.74
62926;BME280;55732;52.248;-0.844;2023-04-06T02:08:57;100386.61;;;9.38;91.47
62926;BME280;55732;52.248;-0.844;2023-04-06T02:11:22;100379.58;;;9.38;91.60
62926;BME280;55732;52.248;-0.844;2023-04-06T02:13:48;100376.95;;;9.38;91.67
62926;BME280;55732;52.248;-0.844;2023-04-06T02:16:13;100374.14;;;9.38;91.72
62926;BME280;55732;52.248;-0.844;2023-04-06T02:18:39;100374.67;;;9.39;91.86
62926;BME280;55732;52.248;-0.844;2023-04-06T02:21:05;100375.02;;;9.39;91.89
62926;BME280;55732;52.248;-0.844;2023-04-06T02:23:30;100370.27;;;9.39;92.05
62926;BME280;55732;52.248;-0.844;2023-04-06T02:25:56;100366.40;;;9.39;92.04
62926;BME280;55732;52.248;-0.844;2023-04-06T02:28:21;100365.52;;;9.39;92.03
62926;BME280;55732;52.248;-0.844;2023-04-06T02:30:47;100367.11;;;9.40;92.13
62926;BME280;55732;52.248;-0.844;2023-04-06T02:33:12;100364.65;;;9.40;92.13
62926;BME280;55732;52.248;-0.844;2023-04-06T02:35:38;100364.13;;;9.41;92.20
62926;BME280;55732;52.248;-0.844;2023-04-06T02:38:03;100362.20;;;9.41;92.23
62926;BME280;55732;52.248;-0.844;2023-04-06T02:40:28;100356.39;;;9.41;92.38
62926;BME280;55732;52.248;-0.844;2023-04-06T02:42:54;100346.20;;;9.43;92.23
62926;BME280;55732;52.248;-0.844;2023-04-06T02:45:19;100344.98;;;9.42;92.32
62926;BME280;55732;52.248;-0.844;2023-04-06T02:47:45;100346.91;;;9.43;92.57
62926;BME280;55732;52.248;-0.844;2023-04-06T02:50:11;100343.40;;;9.44;92.42
62926;BME280;55732;52.248;-0.844;2023-04-06T02:52:36;100341.80;;;9.44;92.45
62926;BME280;55732;52.248;-0.844;2023-04-06T02:55:02;100338.81;;;9.44;92.51
62926;BME280;55732;52.248;-0.844;2023-04-06T02:57:28;100341.09;;;9.45;92.52
62926;BME280;55732;52.248;-0.844;2023-04-06T02:59:53;100337.92;;;9.45;92.45
62926;BME280;55732;52.248;-0.844;2023-04-06T03:02:18;100340.02;;;9.45;92.60
62926;BME280;55732;52.248;-0.844;2023-04-06T03:04:44;100336.69;;;9.46;92.57
62926;BME280;55732;52.248;-0.844;2023-04-06T03:07:09;100334.41;;;9.47;92.37
62926;BME280;55732;52.248;-0.844;2023-04-06T03:09:37;100330.89;;;9.47;92.68
62926;BME280;55732;52.248;-0.844;2023-04-06T03:12:02;100328.43;;;9.48;92.53
62926;BME280;55732;52.248;-0.844;2023-04-06T03:14:28;100324.05;;;9.48;92.56
62926;BME280;55732;52.248;-0.844;2023-04-06T03:16:53;100323.70;;;9.48;92.66
62926;BME280;55732;52.248;-0.844;2023-04-06T03:19:19;100319.30;;;9.49;92.67
62926;BME280;55732;52.248;-0.844;2023-04-06T03:21:44;100310.52;;;9.50;92.70
62926;BME280;55732;52.248;-0.844;2023-04-06T03:24:10;100312.45;;;9.51;92.63
62926;BME280;55732;52.248;-0.844;2023-04-06T03:26:35;100310.34;;;9.51;92.66
62926;BME280;55732;52.248;-0.844;2023-04-06T03:29:01;100309.11;;;9.51;92.58
62926;BME280;55732;52.248;-0.844;2023-04-06T03:31:26;100307.88;;;9.51;92.65
62926;BME280;55732;52.248;-0.844;2023-04-06T03:33:52;100303.13;;;9.51;92.81
62926;BME280;55732;52.248;-0.844;2023-04-06T03:36:17;100303.31;;;9.51;92.78
62926;BME280;55732;52.248;-0.844;2023-04-06T03:38:43;100302.25;;;9.52;92.78
62926;BME280;55732;52.248;-0.844;2023-04-06T03:41:09;100303.13;;;9.52;92.85
62926;BME280;55732;52.248;-0.844;2023-04-06T03:43:35;100296.10;;;9.51;92.74
62926;BME280;55732;52.248;-0.844;2023-04-06T03:46:00;100291.01;;;9.52;92.79
62926;BME280;55732;52.248;-0.844;2023-04-06T03:48:25;100292.06;;;9.52;92.82
62926;BME280;55732;52.248;-0.844;2023-04-06T03:50:51;100288.38;;;9.53;92.98
62926;BME280;55732;52.248;-0.844;2023-04-06T03:53:16;100288.90;;;9.54;92.87
62926;BME280;55732;52.248;-0.844;2023-04-06T03:55:42;100286.27;;;9.54;92.79
62926;BME280;55732;52.248;-0.844;2023-04-06T03:58:07;100286.27;;;9.55;92.93
62926;BME280;55732;52.248;-0.844;2023-04-06T04:00:32;100285.02;;;9.56;92.91
62926;BME280;55732;52.248;-0.844;2023-04-06T04:02:58;100282.89;;;9.57;92.91
62926;BME280;55732;52.248;-0.844;2023-04-06T04:05:24;100278.69;;;9.57;93.01
62926;BME280;55732;52.248;-0.844;2023-04-06T04:07:51;100274.47;;;9.57;92.94
62926;BME280;55732;52.248;-0.844;2023-04-06T04:10:17;100275.16;;;9.58;93.00
62926;BME280;55732;52.248;-0.844;2023-04-06T04:12:42;100274.10;;;9.58;93.07
62926;BME280;55732;52.248;-0.844;2023-04-06T04:15:08;100272.00;;;9.58;92.96
62926;BME280;55732;52.248;-0.844;2023-04-06T04:17:34;100266.38;;;9.59;93.13
62926;BME280;55732;52.248;-0.844;2023-04-06T04:19:59;100260.39;;;9.58;92.93
62926;BME280;55732;52.248;-0.844;2023-04-06T04:22:24;100260.04;;;9.58;92.99
62926;BME280;55732;52.248;-0.844;2023-04-06T04:24:50;100253.02;;;9.58;92.94
62926;BME280;55732;52.248;-0.844;2023-04-06T04:27:15;100250.55;;;9.58;93.13
62926;BME280;55732;52.248;-0.844;2023-04-06T04:29:40;100241.23;;;9.59;93.19
62926;BME280;55732;52.248;-0.844;2023-04-06T04:32:06;100243.88;;;9.59;93.16
62926;BME280;55732;52.248;-0.844;2023-04-06T04:34:31;100248.10;;;9.61;93.30
62926;BME280;55732;52.248;-0.844;2023-04-06T04:36:57;100252.84;;;9.61;93.24
62926;BME280;55732;52.248;-0.844;2023-04-06T04:39:23;100254.77;;;9.63;93.35
62926;BME280;55732;52.248;-0.844;2023-04-06T04:41:48;100256.53;;;9.63;93.44
62926;BME280;55732;52.248;-0.844;2023-04-06T04:44:14;100256.70;;;9.65;93.57
62926;BME280;55732;52.248;-0.844;2023-04-06T04:46:40;100255.46;;;9.67;93.73
62926;BME280;55732;52.248;-0.844;2023-04-06T04:49:06;100254.04;;;9.68;93.43
62926;BME280;55732;52.248;-0.844;2023-04-06T04:51:32;100254.91;;;9.69;93.39
62926;BME280;55732;52.248;-0.844;2023-04-06T04:53:57;100252.27;;;9.70;93.49
62926;BME280;55732;52.248;-0.844;2023-04-06T04:56:23;100250.70;;;9.71;93.55
62926;BME280;55732;52.248;-0.844;2023-04-06T04:58:49;100249.29;;;9.72;93.44
62926;BME280;55732;52.248;-0.844;2023-04-06T05:01:14;100243.66;;;9.72;93.45
62926;BME280;55732;52.248;-0.844;2023-04-06T05:03:40;100240.67;;;9.72;93.57
62926;BME280;55732;52.248;-0.844;2023-04-06T05:06:05;100240.15;;;9.73;93.47
62926;BME280;55732;52.248;-0.844;2023-04-06T05:08:31;100237.15;;;9.71;93.46
62926;BME280;55732;52.248;-0.844;2023-04-06T05:10:57;100236.45;;;9.72;93.52
62926;BME280;55732;52.248;-0.844;2023-04-06T05:13:22;100236.64;;;9.72;93.57
62926;BME280;55732;52.248;-0.844;2023-04-06T05:15:48;100230.48;;;9.73;93.62
62926;BME280;55732;52.248;-0.844;2023-04-06T05:18:14;100230.65;;;9.74;93.58
62926;BME280;55732;52.248;-0.844;2023-04-06T05:20:40;100228.55;;;9.75;93.68
62926;BME280;55732;52.248;-0.844;2023-04-06T05:23:05;100229.24;;;9.75;93.43
62926;BME280;55732;52.248;-0.844;2023-04-06T05:25:31;100240.85;;;9.76;93.56
62926;BME280;55732;52.248;-0.844;2023-04-06T05:27:57;100241.91;;;9.76;93.56
62926;BME280;55732;52.248;-0.844;2023-04-06T05:30:23;100238.04;;;9.76;93.42
62926;BME280;55732;52.248;-0.844;2023-04-06T05:32:48;100237.68;;;9.77;93.64
62926;BME280;55732;52.248;-0.844;2023-04-06T05:35:14;100233.83;;;9.77;93.63
62926;BME280;55732;52.248;-0.844;2023-04-06T05:37:40;100235.21;;;9.78;93.60
62926;BME280;55732;52.248;-0.844;2023-04-06T05:40:06;100245.20;;;9.80;93.59
62926;BME280;55732;52.248;-0.844;2023-04-06T05:42:39;100255.58;;;9.81;93.57
62926;BME280;55732;52.248;-0.844;2023-04-06T05:45:08;100255.23;;;9.81;93.59
62926;BME280;55732;52.248;-0.844;2023-04-06T05:47:34;100251.54;;;9.82;93.68
62926;BME280;55732;52.248;-0.844;2023-04-06T05:50:00;100251.89;;;9.82;93.60
62926;BME280;55732;52.248;-0.844;2023-04-06T05:52:25;100253.47;;;9.82;93.59
62926;BME280;55732;52.248;-0.844;2023-04-06T05:54:51;100255.75;;;9.82;93.60
62926;BME280;55732;52.248;-0.844;2023-04-06T05:57:16;100255.93;;;9.82;93.74
62926;BME280;55732;52.248;-0.844;2023-04-06T05:59:42;100248.73;;;9.83;93.80
62926;BME280;55732;52.248;-0.844;2023-04-06T06:02:08;100255.59;;;9.85;93.72
62926;BME280;55732;52.248;-0.844;2023-04-06T06:04:33;100253.99;;;9.85;93.61
62926;BME280;55732;52.248;-0.844;2023-04-06T06:07:00;100251.01;;;9.87;93.69
62926;BME280;55732;52.248;-0.844;2023-04-06T06:09:26;100245.55;;;9.88;93.69
62926;BME280;55732;52.248;-0.844;2023-04-06T06:11:51;100248.53;;;9.91;93.63
62926;BME280;55732;52.248;-0.844;2023-04-06T06:14:17;100249.91;;;9.94;93.77
62926;BME280;55732;52.248;-0.844;2023-04-06T06:16:42;100248.33;;;9.95;93.59
62926;BME280;55732;52.248;-0.844;2023-04-06T06:19:08;100244.11;;;9.97;93.54
62926;BME280;55732;52.248;-0.844;2023-04-06T06:21:33;100246.56;;;9.98;93.47
62926;BME280;55732;52.248;-0.844;2023-04-06T06:23:59;100244.98;;;10.00;93.64
62926;BME280;55732;52.248;-0.844;2023-04-06T06:26:25;100244.77;;;10.03;93.54
62926;BME280;55732;52.248;-0.844;2023-04-06T06:28:50;100242.99;;;10.07;93.40
62926;BME280;55732;52.248;-0.844;2023-04-06T06:31:15;100244.92;;;10.09;93.37
62926;BME280;55732;52.248;-0.844;2023-04-06T06:33:42;100243.52;;;10.12;93.29
62926;BME280;55732;52.248;-0.844;2023-04-06T06:36:07;100241.71;;;10.16;93.35
62926;BME280;55732;52.248;-0.844;2023-04-06T06:38:32;100243.49;;;10.19;93.36
62926;BME280;55732;52.248;-0.844;2023-04-06T06:40:58;100243.99;;;10.25;93.29
62926;BME280;55732;52.248;-0.844;2023-04-06T06:43:23;100244.48;;;10.35;93.16
62926;BME280;55732;52.248;-0.844;2023-04-06T06:45:49;100238.96;;;10.43;93.17
62926;BME280;55732;52.248;-0.844;2023-04-06T06:48:15;100240.33;;;10.51;93.06
62926;BME280;55732;52.248;-0.844;2023-04-06T06:50:40;100244.15;;;10.59;92.68
62926;BME280;55732;52.248;-0.844;2023-04-06T06:53:06;100244.80;;;10.67;92.57
62926;BME280;55732;52.248;-0.844;2023-04-06T06:55:31;100245.13;;;10.71;92.36
62926;BME280;55732;52.248;-0.844;2023-04-06T06:57:57;100249.70;;;10.71;92.32
62926;BME280;55732;52.248;-0.844;2023-04-06T07:00:22;100250.23;;;10.72;92.38
62926;BME280;55732;52.248;-0.844;2023-04-06T07:02:48;100250.05;;;10.72;92.35
62926;BME280;55732;52.248;-0.844;2023-04-06T07:05:15;100251.11;;;10.72;92.27
62926;BME280;55732;52.248;-0.844;2023-04-06T07:07:41;100252.70;;;10.72;92.24
62926;BME280;55732;52.248;-0.844;2023-04-06T07:10:07;100251.47;;;10.71;92.27
62926;BME280;55732;52.248;-0.844;2023-04-06T07:12:33;100253.23;;;10.70;92.32
62926;BME280;55732;52.248;-0.844;2023-04-06T07:14:58;100248.48;;;10.69;92.28
62926;BME280;55732;52.248;-0.844;2023-04-06T07:17:24;100254.29;;;10.69;92.27
62926;BME280;55732;52.248;-0.844;2023-04-06T07:19:49;100250.23;;;10.69;92.26
62926;BME280;55732;52.248;-0.844;2023-04-06T07:22:15;100251.65;;;10.69;92.22
62926;BME280;55732;52.248;-0.844;2023-04-06T07:24:41;100251.81;;;10.70;92.33
62926;BME280;55732;52.248;-0.844;2023-04-06T07:27:06;100254.46;;;10.69;92.02
62926;BME280;55732;52.248;-0.844;2023-04-06T07:29:32;100255.35;;;10.68;92.01
62926;BME280;55732;52.248;-0.844;2023-04-06T07:31:57;100257.13;;;10.66;92.10
62926;BME280;55732;52.248;-0.844;2023-04-06T07:34:23;100258.89;;;10.64;91.81
62926;BME280;55732;52.248;-0.844;2023-04-06T07:36:48;100260.69;;;10.61;91.86
62926;BME280;55732;52.248;-0.844;2023-04-06T07:39:14;100259.12;;;10.59;91.87
62926;BME280;55732;52.248;-0.844;2023-04-06T07:41:40;100264.05;;;10.58;91.90
62926;BME280;55732;52.248;-0.844;2023-04-06T07:44:06;100264.75;;;10.58;91.90
62926;BME280;55732;52.248;-0.844;2023-04-06T07:46:32;100268.61;;;10.58;91.84
62926;BME280;55732;52.248;-0.844;2023-04-06T07:48:58;100264.75;;;10.57;91.76
62926;BME280;55732;52.248;-0.844;2023-04-06T07:51:24;100264.05;;;10.58;91.74
62926;BME280;55732;52.248;-0.844;2023-04-06T07:53:51;100268.63;;;10.57;91.54
62926;BME280;55732;52.248;-0.844;2023-04-06T07:56:17;100271.63;;;10.56;91.53
62926;BME280;55732;52.248;-0.844;2023-04-06T07:58:43;100274.45;;;10.54;91.80
62926;BME280;55732;52.248;-0.844;2023-04-06T08:01:08;100274.11;;;10.53;91.72
62926;BME280;55732;52.248;-0.844;2023-04-06T08:03:35;100272.34;;;10.52;91.86
62926;BME280;55732;52.248;-0.844;2023-04-06T08:06:01;100274.29;;;10.51;91.73
62926;BME280;55732;52.248;-0.844;2023-04-06T08:08:27;100275.02;;;10.49;91.71
62926;BME280;55732;52.248;-0.844;2023-04-06T08:10:53;100275.73;;;10.47;91.86
62926;BME280;55732;52.248;-0.844;2023-04-06T08:13:18;100277.48;;;10.48;92.08
62926;BME280;55732;52.248;-0.844;2023-04-06T08:15:44;100275.38;;;10.48;91.87
62926;BME280;55732;52.248;-0.844;2023-04-06T08:18:10;100278.18;;;10.49;91.81
62926;BME280;55732;52.248;-0.844;2023-04-06T08:20:36;100281.50;;;10.52;91.60
62926;BME280;55732;52.248;-0.844;2023-04-06T08:23:02;100284.80;;;10.61;91.44
62926;BME280;55732;52.248;-0.844;2023-04-06T08:25:27;100283.46;;;10.77;91.22
62926;BME280;55732;52.248;-0.844;2023-04-06T08:27:52;100283.80;;;11.03;90.97
62926;BME280;55732;52.248;-0.844;2023-04-06T08:30:18;100287.20;;;11.37;90.30
62926;BME280;55732;52.248;-0.844;2023-04-06T08:32:45;100283.91;;;11.67;89.55
62926;BME280;55732;52.248;-0.844;2023-04-06T08:35:11;100284.62;;;11.86;88.82
62926;BME280;55732;52.248;-0.844;2023-04-06T08:37:37;100284.91;;;12.06;88.51
62926;BME280;55732;52.248;-0.844;2023-04-06T08:40:03;100282.53;;;12.27;88.24
62926;BME280;55732;52.248;-0.844;2023-04-06T08:42:32;100288.94;;;12.49;87.46
62926;BME280;55732;52.248;-0.844;2023-04-06T08:44:58;100292.13;;;12.61;86.91
62926;BME280;55732;52.248;-0.844;2023-04-06T08:47:24;100295.55;;;12.69;86.86
62926;BME280;55732;52.248;-0.844;2023-04-06T08:49:50;100301.38;;;12.69;86.66
62926;BME280;55732;52.248;-0.844;2023-04-06T08:52:18;100304.31;;;12.61;86.59
62926;BME280;55732;52.248;-0.844;2023-04-06T08:54:44;100307.81;;;12.52;86.47
62926;BME280;55732;52.248;-0.844;2023-04-06T08:57:09;100305.34;;;12.38;86.20
62926;BME280;55732;52.248;-0.844;2023-04-06T08:59:36;100308.53;;;12.22;86.14
62926;BME280;55732;52.248;-0.844;2023-04-06T09:02:03;100316.14;;;12.22;86.30
62926;BME280;55732;52.248;-0.844;2023-04-06T09:04:33;100307.95;;;12.26;86.05
62926;BME280;55732;52.248;-0.844;2023-04-06T09:07:00;100310.11;;;12.38;85.64
62926;BME280;55732;52.248;-0.844;2023-04-06T09:09:25;100311.16;;;12.51;85.31
62926;BME280;55732;52.248;-0.844;2023-04-06T09:11:51;100308.02;;;12.63;84.76
62926;BME280;55732;52.248;-0.844;2023-04-06T09:14:36;100306.91;;;12.77;85.10
62926;BME280;55732;52.248;-0.844;2023-04-06T09:17:03;100306.63;;;12.96;85.05
62926;BME280;55732;52.248;-0.844;2023-04-06T09:19:29;100308.40;;;13.07;84.42
62926;BME280;55732;52.248;-0.844;2023-04-06T09:22:05;100306.66;;;13.18;84.06
62926;BME280;55732;52.248;-0.844;2023-04-06T09:24:43;100307.55;;;13.29;83.61
62926;BME280;55732;52.248;-0.844;2023-04-06T09:27:09;100307.19;;;13.40;83.21
62926;BME280;55732;52.248;-0.844;2023-04-06T09:29:35;100306.51;;;13.48;82.78
62926;BME280;55732;52.248;-0.844;2023-04-06T09:32:03;100303.88;;;13.56;82.80
62926;BME280;55732;52.248;-0.844;2023-04-06T09:34:29;100307.15;;;13.61;81.77
62926;BME280;55732;52.248;-0.844;2023-04-06T09:36:54;100314.14;;;13.67;81.24
62926;BME280;55732;52.248;-0.844;2023-04-06T09:39:22;100315.46;;;13.71;80.80
62926;BME280;55732;52.248;-0.844;2023-04-06T09:41:50;100316.64;;;13.74;80.57
62926;BME280;55732;52.248;-0.844;2023-04-06T09:44:16;100317.30;;;13.78;80.27
62926;BME280;55732;52.248;-0.844;2023-04-06T09:46:42;100320.18;;;13.74;79.83
62926;BME280;55732;52.248;-0.844;2023-04-06T09:49:09;100324.37;;;13.68;79.67
62926;BME280;55732;52.248;-0.844;2023-04-06T09:54:07;100328.55;;;13.52;79.10
62926;BME280;55732;52.248;-0.844;2023-04-06T09:59:21;100340.19;;;13.54;78.58
62926;BME280;55732;52.248;-0.844;2023-04-06T10:01:51;100341.45;;;13.53;77.99
62926;BME280;55732;52.248;-0.844;2023-04-06T10:04:33;100346.79;;;13.51;77.36
62926;BME280;55732;52.248;-0.844;2023-04-06T10:07:02;100346.14;;;13.47;77.14
62926;BME280;55732;52.248;-0.844;2023-04-06T10:09:28;100348.08;;;13.47;76.92
62926;BME280;55732;52.248;-0.844;2023-04-06T10:12:03;100353.39;;;13.47;76.48
62926;BME280;55732;52.248;-0.844;2023-04-06T10:14:34;100356.25;;;13.46;76.25
62926;BME280;55732;52.248;-0.844;2023-04-06T10:17:03;100358.77;;;13.44;76.18
62926;BME280;55732;52.248;-0.844;2023-04-06T10:19:38;100362.58;;;13.48;76.30
62926;BME280;55732;52.248;-0.844;2023-04-06T10:22:06;100364.06;;;13.55;76.29
62926;BME280;55732;52.248;-0.844;2023-04-06T10:24:35;100368.95;;;13.57;76.01
62926;BME280;55732;52.248;-0.844;2023-04-06T10:27:02;100370.55;;;13.58;75.82
62926;BME280;55732;52.248;-0.844;2023-04-06T10:29:28;100366.59;;;13.52;75.88
62926;BME280;55732;52.248;-0.844;2023-04-06T10:32:06;100367.30;;;13.51;75.77
62926;BME280;55732;52.248;-0.844;2023-04-06T10:34:35;100375.14;;;13.58;74.99
62926;BME280;55732;52.248;-0.844;2023-04-06T10:37:12;100377.66;;;13.66;75.24
62926;BME280;55732;52.248;-0.844;2023-04-06T10:39:51;100375.41;;;13.73;74.40
62926;BME280;55732;52.248;-0.844;2023-04-06T10:42:24;100372.20;;;13.85;74.02
62926;BME280;55732;52.248;-0.844;2023-04-06T10:44:50;100374.59;;;14.00;73.69
62926;BME280;55732;52.248;-0.844;2023-04-06T10:47:17;100373.61;;;14.13;73.35
62926;BME280;55732;52.248;-0.844;2023-04-06T10:49:45;100369.29;;;14.27;73.07
62926;BME280;55732;52.248;-0.844;2023-04-06T10:52:11;100374.72;;;14.48;72.76
62926;BME280;55732;52.248;-0.844;2023-04-06T10:54:41;100375.19;;;14.69;71.49
62926;BME280;55732;52.248;-0.844;2023-04-06T10:57:09;100376.69;;;14.73;71.03
62926;BME280;55732;52.248;-0.844;2023-04-06T10:59:35;100372.19;;;14.76;71.16
62926;BME280;55732;52.248;-0.844;2023-04-06T11:02:01;100372.46;;;14.80;70.82
62926;BME280;55732;52.248;-0.844;2023-04-06T11:04:26;100380.73;;;15.06;70.28
62926;BME280;55732;52.248;-0.844;2023-04-06T11:06:52;100375.20;;;15.30;69.19
62926;BME280;55732;52.248;-0.844;2023-04-06T11:09:28;100381.38;;;15.54;68.84
62926;BME280;55732;52.248;-0.844;2023-04-06T11:11:55;100379.35;;;15.92;68.11
62926;BME280;55732;52.248;-0.844;2023-04-06T11:14:21;100375.66;;;16.16;67.34
62926;BME280;55732;52.248;-0.844;2023-04-06T11:16:47;100377.79;;;16.42;66.85
62926;BME280;55732;52.248;-0.844;2023-04-06T11:19:16;100375.70;;;16.66;66.66
62926;BME280;55732;52.248;-0.844;2023-04-06T11:21:44;100382.63;;;16.84;65.83
62926;BME280;55732;52.248;-0.844;2023-04-06T11:24:13;100380.35;;;17.01;64.66
62926;BME280;55732;52.248;-0.844;2023-04-06T11:29:23;100387.81;;;17.07;62.26
62926;BME280;55732;52.248;-0.844;2023-04-06T11:32:00;100387.52;;;16.99;62.01
62926;BME280;55732;52.248;-0.844;2023-04-06T11:34:29;100384.83;;;16.88;62.18
62926;BME280;55732;52.248;-0.844;2023-04-06T11:36:57;100382.95;;;16.80;62.08
62926;BME280;55732;52.248;-0.844;2023-04-06T11:39:25;100382.42;;;16.68;61.47
62926;BME280;55732;52.248;-0.844;2023-04-06T11:41:53;100381.89;;;16.60;61.33
62926;BME280;55732;52.248;-0.844;2023-04-06T11:46:57;100387.41;;;16.28;60.90
62926;BME280;55732;52.248;-0.844;2023-04-06T11:49:27;100384.18;;;16.23;61.00
62926;BME280;55732;52.248;-0.844;2023-04-06T11:51:54;100387.44;;;16.15;60.66
62926;BME280;55732;52.248;-0.844;2023-04-06T11:54:50;100388.38;;;16.20;60.38
62926;BME280;55732;52.248;-0.844;2023-04-06T11:57:17;100391.36;;;16.40;59.64
62926;BME280;55732;52.248;-0.844;2023-04-06T11:59:44;100392.34;;;16.43;59.61
62926;BME280;55732;52.248;-0.844;2023-04-06T12:02:10;100401.20;;;16.25;57.94
62926;BME280;55732;52.248;-0.844;2023-04-06T12:04:36;100411.56;;;15.82;57.05
62926;BME280;55732;52.248;-0.844;2023-04-06T12:07:02;100416.11;;;15.41;57.59
62926;BME280;55732;52.248;-0.844;2023-04-06T12:09:27;100416.24;;;15.12;58.38
62926;BME280;55732;52.248;-0.844;2023-04-06T12:11:53;100421.02;;;14.96;59.16
62926;BME280;55732;52.248;-0.844;2023-04-06T12:14:19;100419.95;;;14.89;59.89
62926;BME280;55732;52.248;-0.844;2023-04-06T12:16:45;100417.38;;;14.93;60.03
62926;BME280;55732;52.248;-0.844;2023-04-06T12:19:11;100416.04;;;15.05;60.52
62926;BME280;55732;52.248;-0.844;2023-04-06T12:21:36;100416.45;;;15.19;60.66
62926;BME280;55732;52.248;-0.844;2023-04-06T12:24:03;100418.63;;;15.32;61.17
62926;BME280;55732;52.248;-0.844;2023-04-06T12:26:29;100413.60;;;15.42;61.06
62926;BME280;55732;52.248;-0.844;2023-04-06T12:28:56;100419.77;;;15.51;61.03
62926;BME280;55732;52.248;-0.844;2023-04-06T12:31:22;100420.23;;;15.56;61.00
62926;BME280;55732;52.248;-0.844;2023-04-06T12:33:49;100421.67;;;15.61;60.73
62926;BME280;55732;52.248;-0.844;2023-04-06T12:36:16;100420.80;;;15.68;60.40
62926;BME280;55732;52.248;-0.844;2023-04-06T12:38:48;100413.35;;;15.75;60.59
62926;BME280;55732;52.248;-0.844;2023-04-06T12:41:14;100418.97;;;15.70;60.35
62926;BME280;55732;52.248;-0.844;2023-04-06T12:43:44;100423.98;;;15.61;59.99
62926;BME280;55732;52.248;-0.844;2023-04-06T12:46:10;100425.05;;;15.38;59.66
62926;BME280;55732;52.248;-0.844;2023-04-06T12:48:36;100426.70;;;15.35;60.26
62926;BME280;55732;52.248;-0.844;2023-04-06T12:51:04;100425.49;;;15.41;59.50